createdAt,value
2019-02-17T00:02:56.678Z,85.40
2019-02-17T00:15:13.290Z,83.90
2019-02-17T00:24:40.293Z,83.20
2019-02-17T00:57:04.956Z,84.10
2019-02-17T01:00:41.049Z,85.30
2019-02-17T01:04:22.004Z,85.20
2019-02-17T01:12:04.046Z,85.80
2019-02-17T01:22:09.281Z,85.90
2019-02-17T01:25:21.683Z,85.10
2019-02-17T01:36:37.748Z,86.40
2019-02-17T01:44:02.304Z,85.50
2019-02-17T01:59:07.429Z,86.80
2019-02-17T02:12:49.371Z,88.50
2019-02-17T02:16:53.035Z,89.20
2019-02-17T02:24:15.754Z,89.00
2019-02-17T02:28:54.451Z,89.10
2019-02-17T02:36:34.653Z,89.80
2019-02-17T02:57:06.419Z,91.00
2019-02-17T03:01:00.546Z,91.40
2019-02-17T03:11:42.527Z,92.20
2019-02-17T03:15:18.804Z,92.30
2019-02-17T03:19:10.495Z,92.80
2019-02-17T03:22:15.778Z,92.90
2019-02-17T03:25:45.368Z,92.30
2019-02-17T03:29:35.235Z,92.30
2019-02-17T03:42:54.829Z,93.00
2019-02-17T03:50:02.421Z,92.90
2019-02-17T03:53:33.783Z,93.90
2019-02-17T03:56:38.255Z,92.30
2019-02-17T04:06:19.450Z,93.00
2019-02-17T04:09:36.139Z,92.80
2019-02-17T04:17:32.580Z,92.40
2019-02-17T04:27:55.135Z,92.00
2019-02-17T04:32:00.995Z,92.70
2019-02-17T04:34:53.518Z,93.20
2019-02-17T04:38:23.183Z,93.00
2019-02-17T04:50:58.331Z,93.10
2019-02-17T04:56:55.964Z,93.20
2019-02-17T05:11:44.282Z,93.90
2019-02-17T05:14:08.784Z,93.60
2019-02-17T05:15:13.131Z,93.50
2019-02-17T05:31:18.083Z,92.60
2019-02-17T05:34:58.974Z,93.30
2019-02-17T05:56:13.589Z,96.00
2019-02-17T06:10:53.138Z,95.50
2019-02-17T06:13:34.567Z,95.10
2019-02-17T06:23:12.908Z,95.00
2019-02-17T06:26:02.239Z,94.80
2019-02-17T06:28:58.743Z,94.90
2019-02-17T06:31:53.200Z,95.20
2019-02-17T06:45:14.709Z,94.10
2019-02-17T06:48:12.574Z,94.00
2019-02-17T06:51:07.560Z,94.10
2019-02-17T06:54:13.829Z,94.00
2019-02-17T07:01:06.366Z,93.60
2019-02-17T07:04:17.190Z,93.90
2019-02-17T07:07:02.911Z,93.70
2019-02-17T07:10:10.752Z,93.90
2019-02-17T07:13:28.120Z,93.70
2019-02-17T07:16:01.287Z,94.00
2019-02-17T07:19:22.568Z,93.50
2019-02-17T07:22:24.962Z,93.10
2019-02-17T07:26:17.032Z,93.00
2019-02-17T07:28:57.324Z,93.00
2019-02-17T07:31:46.421Z,93.20
2019-02-17T07:34:45.964Z,93.10
2019-02-17T07:37:42.047Z,93.50
2019-02-17T07:40:15.533Z,93.40
2019-02-17T07:42:54.889Z,92.70
2019-02-17T07:45:28.893Z,92.20
2019-02-17T07:48:27.354Z,92.60
2019-02-17T07:51:10.918Z,93.20
2019-02-17T07:54:02.471Z,91.20
2019-02-17T07:58:27.594Z,90.70
2019-02-17T07:59:23.295Z,91.10
2019-02-17T08:02:06.561Z,91.10
2019-02-17T08:04:54.361Z,91.00
2019-02-17T08:07:24.267Z,91.40
2019-02-17T08:09:55.072Z,91.80
2019-02-17T08:12:27.556Z,91.90
2019-02-17T08:14:56.963Z,91.40
2019-02-17T08:17:26.328Z,91.00
2019-02-17T08:19:55.780Z,90.00
2019-02-17T08:22:24.955Z,89.80
2019-02-17T08:24:54.237Z,89.70
2019-02-17T08:27:25.651Z,89.30
2019-02-17T08:29:55.411Z,88.10
2019-02-17T08:32:28.073Z,85.50
2019-02-17T08:34:57.647Z,82.60
2019-02-17T08:37:27.495Z,78.10
2019-02-17T08:39:57.190Z,77.00
2019-02-17T08:43:05.494Z,69.70
2019-02-17T08:45:37.329Z,59.70
2019-02-17T08:48:07.468Z,46.20
2019-02-17T08:50:37.554Z,36.50
2019-02-17T08:53:09.247Z,28.00
2019-02-17T08:55:39.573Z,23.10
2019-02-17T08:58:09.000Z,19.30
2019-02-17T09:00:38.933Z,18.30
2019-02-17T09:03:08.347Z,15.80
2019-02-17T09:05:44.079Z,13.40
2019-02-17T09:08:10.103Z,12.00
2019-02-17T09:10:39.688Z,8.60
2019-02-17T09:13:08.712Z,9.40
2019-02-17T09:15:37.501Z,9.20
2019-02-17T09:18:06.392Z,10.00
2019-02-17T09:20:35.514Z,10.70
2019-02-17T09:23:04.356Z,9.40
2019-02-17T09:25:33.114Z,10.90
2019-02-17T09:28:01.917Z,10.70
2019-02-17T09:30:30.775Z,9.80
2019-02-17T09:32:59.627Z,10.40
2019-02-17T09:35:28.374Z,10.20
2019-02-17T09:37:57.472Z,7.90
2019-02-17T09:40:26.302Z,7.10
2019-02-17T09:42:55.227Z,5.70
2019-02-17T09:45:23.997Z,5.10
2019-02-17T09:47:53.045Z,4.90
2019-02-17T09:50:21.905Z,5.00
2019-02-17T09:52:50.925Z,4.60
2019-02-17T09:55:19.683Z,3.50
2019-02-17T09:57:48.444Z,3.30
2019-02-17T10:00:17.333Z,3.30
2019-02-17T10:02:46.225Z,1.90
2019-02-17T10:05:15.566Z,1.00
2019-02-17T10:07:44.389Z,1.00
2019-02-17T10:10:13.975Z,1.00
2019-02-17T10:12:43.307Z,1.00
2019-02-17T10:15:12.881Z,1.00
2019-02-17T10:17:42.107Z,1.00
2019-02-17T10:20:11.330Z,1.00
2019-02-17T10:22:40.294Z,1.00
2019-02-17T10:25:09.641Z,1.00
2019-02-17T10:27:38.611Z,1.00
2019-02-17T10:30:09.043Z,1.00
2019-02-17T10:32:39.236Z,1.00
2019-02-17T10:35:08.706Z,1.00
2019-02-17T10:37:37.780Z,1.00
2019-02-17T10:40:08.370Z,1.00
2019-02-17T10:42:37.773Z,1.00
2019-02-17T10:45:07.230Z,1.00
2019-02-17T10:47:36.064Z,1.00
2019-02-17T10:50:05.179Z,1.00
2019-02-17T10:52:35.056Z,1.00
2019-02-17T10:55:05.097Z,1.00
2019-02-17T10:57:34.819Z,1.00
2019-02-17T11:00:05.040Z,1.00
2019-02-17T11:02:33.903Z,1.00
2019-02-17T11:05:03.709Z,1.00
2019-02-17T11:07:32.574Z,1.00
2019-02-17T11:10:01.535Z,1.00
2019-02-17T11:12:30.491Z,1.00
2019-02-17T11:14:59.315Z,1.00
2019-02-17T11:17:28.227Z,1.00
2019-02-17T11:19:57.159Z,1.00
2019-02-17T11:22:26.288Z,1.00
2019-02-17T11:24:57.875Z,1.00
2019-02-17T11:27:26.897Z,1.00
2019-02-17T11:29:57.127Z,1.00
2019-02-17T11:32:26.271Z,1.00
2019-02-17T11:34:55.216Z,1.00
2019-02-17T11:37:24.935Z,1.00
2019-02-17T11:39:53.875Z,1.00
2019-02-17T11:42:25.240Z,1.00
2019-02-17T11:44:56.997Z,1.00
2019-02-17T11:47:27.591Z,1.00
2019-02-17T11:49:57.037Z,1.00
2019-02-17T11:52:25.876Z,1.00
2019-02-17T11:54:55.881Z,1.00
2019-02-17T11:57:24.724Z,1.00
2019-02-17T11:59:53.844Z,1.00
2019-02-17T12:02:25.235Z,1.00
2019-02-17T12:04:53.673Z,1.00
2019-02-17T12:07:23.834Z,1.00
2019-02-17T12:09:53.908Z,1.00
2019-02-17T12:12:24.612Z,1.00
2019-02-17T12:14:58.308Z,1.00
2019-02-17T12:20:23.812Z,1.00
2019-02-17T12:23:06.180Z,1.00
2019-02-17T12:25:48.538Z,1.00
2019-02-17T12:28:22.519Z,1.00
2019-02-17T12:30:52.006Z,1.00
2019-02-17T12:33:22.055Z,1.00
2019-02-17T12:35:52.175Z,1.00
2019-02-17T12:38:24.255Z,1.00
2019-02-17T12:40:54.563Z,1.00
2019-02-17T12:43:23.816Z,1.00
2019-02-17T12:45:52.583Z,1.00
2019-02-17T12:48:21.581Z,1.00
2019-02-17T12:50:50.932Z,1.00
2019-02-17T12:53:20.106Z,1.00
2019-02-17T12:55:49.310Z,1.00
2019-02-17T12:58:20.139Z,1.00
2019-02-17T13:00:49.511Z,1.00
2019-02-17T13:03:28.321Z,1.00
2019-02-17T13:05:50.734Z,1.00
2019-02-17T13:08:20.075Z,1.00
2019-02-17T13:10:49.728Z,1.00
2019-02-17T13:13:18.862Z,1.00
2019-02-17T13:15:49.649Z,1.00
2019-02-17T13:18:19.285Z,1.00
2019-02-17T13:20:48.387Z,1.00
2019-02-17T13:23:17.439Z,1.00
2019-02-17T13:25:46.289Z,1.00
2019-02-17T13:28:15.426Z,1.00
2019-02-17T13:30:44.255Z,1.00
2019-02-17T13:33:13.623Z,1.00
2019-02-17T13:35:42.732Z,1.00
2019-02-17T13:38:12.332Z,1.00
2019-02-17T13:40:42.971Z,1.00
2019-02-17T13:43:12.118Z,1.00
2019-02-17T13:45:41.212Z,1.00
2019-02-17T13:48:10.831Z,1.00
2019-02-17T13:50:39.699Z,1.00
2019-02-17T13:53:11.675Z,1.00
2019-02-17T13:55:39.311Z,1.00
2019-02-17T13:58:08.193Z,1.00
2019-02-17T14:00:36.987Z,1.00
2019-02-17T14:03:05.863Z,1.00
2019-02-17T14:05:34.968Z,1.00
2019-02-17T14:08:04.097Z,1.00
2019-02-17T14:10:35.474Z,1.00
2019-02-17T14:13:04.339Z,1.00
2019-02-17T14:15:33.263Z,1.00
2019-02-17T14:18:02.761Z,1.00
2019-02-17T14:20:31.827Z,1.00
2019-02-17T14:23:00.697Z,1.00
2019-02-17T14:25:29.514Z,1.00
2019-02-17T14:27:58.576Z,1.00
2019-02-17T14:30:27.478Z,1.00
2019-02-17T14:32:56.650Z,1.00
2019-02-17T14:35:25.486Z,1.00
2019-02-17T14:37:54.522Z,1.00
2019-02-17T14:40:23.319Z,1.00
2019-02-17T14:42:55.262Z,1.00
2019-02-17T14:45:22.701Z,1.00
2019-02-17T14:47:51.500Z,1.00
2019-02-17T14:50:20.363Z,1.00
2019-02-17T14:52:49.242Z,1.00
2019-02-17T14:55:18.458Z,1.00
2019-02-17T14:57:47.317Z,1.00
2019-02-17T15:00:16.234Z,1.00
2019-02-17T15:02:45.307Z,1.00
2019-02-17T15:05:14.200Z,1.00
2019-02-17T15:07:43.008Z,1.00
2019-02-17T15:10:12.166Z,1.00
2019-02-17T15:12:41.505Z,1.00
2019-02-17T15:15:10.461Z,1.00
2019-02-17T15:17:39.534Z,1.00
2019-02-17T15:20:10.289Z,1.00
2019-02-17T15:22:39.172Z,1.00
2019-02-17T15:25:09.176Z,1.00
2019-02-17T15:27:38.050Z,1.00
2019-02-17T15:30:08.700Z,1.00
2019-02-17T15:32:37.626Z,1.00
2019-02-17T15:35:07.160Z,1.00
2019-02-17T15:37:36.023Z,1.50
2019-02-17T15:40:05.120Z,1.90
2019-02-17T15:42:34.046Z,2.50
2019-02-17T15:45:02.882Z,2.30
2019-02-17T15:47:31.711Z,3.00
2019-02-17T15:50:00.764Z,3.10
2019-02-17T15:52:30.199Z,4.60
2019-02-17T15:54:59.272Z,6.40
2019-02-17T15:57:28.177Z,7.50
2019-02-17T15:59:57.298Z,8.40
2019-02-17T16:02:26.335Z,8.30
2019-02-17T16:04:55.438Z,9.10
2019-02-17T16:07:24.564Z,9.10
2019-02-17T16:09:53.415Z,9.80
2019-02-17T16:12:22.686Z,10.50
2019-02-17T16:14:53.940Z,11.70
2019-02-17T16:17:22.993Z,13.50
2019-02-17T16:19:51.843Z,13.60
2019-02-17T16:22:23.199Z,14.30
2019-02-17T16:24:52.236Z,15.30
2019-02-17T16:27:21.096Z,16.00
2019-02-17T16:29:50.121Z,16.50
2019-02-17T16:32:19.292Z,18.30
2019-02-17T16:34:48.110Z,17.10
2019-02-17T16:37:17.012Z,18.30
2019-02-17T16:39:45.792Z,19.40
2019-02-17T16:42:14.861Z,20.00
2019-02-17T16:44:43.712Z,21.20
2019-02-17T16:47:12.463Z,22.90
2019-02-17T16:49:41.219Z,23.50
2019-02-17T16:52:10.048Z,24.60
2019-02-17T16:54:38.873Z,25.80
2019-02-17T16:57:08.056Z,26.10
2019-02-17T16:59:36.850Z,27.10
2019-02-17T17:02:05.767Z,27.60
2019-02-17T17:04:34.587Z,27.20
2019-02-17T17:07:03.760Z,28.80
2019-02-17T17:09:32.819Z,29.10
2019-02-17T17:12:01.598Z,29.60
2019-02-17T17:14:30.540Z,30.70
2019-02-17T17:16:59.378Z,32.10
2019-02-17T17:19:28.750Z,33.20
2019-02-17T17:21:57.556Z,34.40
2019-02-17T17:24:26.552Z,34.50
2019-02-17T17:26:55.576Z,36.00
2019-02-17T17:29:24.410Z,37.60
2019-02-17T17:31:53.267Z,38.40
2019-02-17T17:34:22.012Z,38.60
2019-02-17T17:36:51.091Z,38.60
2019-02-17T17:39:19.896Z,40.50
2019-02-17T17:41:48.907Z,41.80
2019-02-17T17:44:17.729Z,44.10
2019-02-17T17:46:46.504Z,45.60
2019-02-17T17:49:19.275Z,47.40
2019-02-17T17:51:45.856Z,46.20
2019-02-17T17:54:14.753Z,48.40
2019-02-17T17:56:43.870Z,48.30
2019-02-17T17:59:13.012Z,48.50
2019-02-17T18:01:44.302Z,49.90
2019-02-17T18:04:13.215Z,50.30
2019-02-17T18:09:17.022Z,52.50
2019-02-17T18:11:52.190Z,53.30
2019-02-17T18:14:27.009Z,53.80
2019-02-17T18:16:58.290Z,54.40
2019-02-17T18:19:28.730Z,55.30
2019-02-17T18:22:04.525Z,55.60
2019-02-17T18:24:37.387Z,55.30
2019-02-17T18:27:08.341Z,57.00
2019-02-17T18:29:39.253Z,57.50
2019-02-17T18:32:09.242Z,57.90
2019-02-17T18:34:39.074Z,58.50
2019-02-17T18:37:10.992Z,58.70
2019-02-17T18:39:39.768Z,59.40
2019-02-17T18:42:08.865Z,59.70
2019-02-17T18:44:37.655Z,60.90
2019-02-17T18:47:06.430Z,61.20
2019-02-17T18:49:35.208Z,60.50
2019-02-17T18:52:04.060Z,61.00
2019-02-17T18:54:36.419Z,61.20
2019-02-17T18:57:08.162Z,61.30
2019-02-17T18:59:36.567Z,62.20
2019-02-17T19:02:05.357Z,62.60
2019-02-17T19:04:34.453Z,62.90
2019-02-17T19:07:03.527Z,62.50
2019-02-17T19:09:32.390Z,63.90
2019-02-17T19:12:01.570Z,63.90
2019-02-17T19:14:30.700Z,62.50
2019-02-17T19:16:59.494Z,63.10
2019-02-17T19:19:28.418Z,62.20
2019-02-17T19:21:57.243Z,63.80
2019-02-17T19:24:26.075Z,63.30
2019-02-17T19:26:57.819Z,63.40
2019-02-17T19:29:26.913Z,63.80
2019-02-17T19:31:55.748Z,63.10
2019-02-17T19:34:24.714Z,64.00
2019-02-17T19:36:53.534Z,64.70
2019-02-17T19:39:22.639Z,64.30
2019-02-17T19:41:51.435Z,63.40
2019-02-17T19:44:20.532Z,64.30
2019-02-17T19:46:49.611Z,66.10
2019-02-17T19:49:18.750Z,66.80
2019-02-17T19:51:49.648Z,66.70
2019-02-17T19:54:18.347Z,67.00
2019-02-17T19:56:47.398Z,67.00
2019-02-17T19:59:16.425Z,67.00
2019-02-17T20:01:45.523Z,68.00
2019-02-17T20:04:24.205Z,68.10
2019-02-17T20:06:53.104Z,68.50
2019-02-17T20:09:22.122Z,68.80
2019-02-17T20:11:52.374Z,69.20
2019-02-17T20:14:21.617Z,69.60
2019-02-17T20:16:50.467Z,69.70
2019-02-17T20:19:19.272Z,69.30
2019-02-17T20:21:48.172Z,69.40
2019-02-17T20:24:17.051Z,70.50
2019-02-17T20:26:45.871Z,70.60
2019-02-17T20:29:14.646Z,70.90
2019-02-17T20:31:43.798Z,71.40
2019-02-17T20:34:14.579Z,71.90
2019-02-17T20:36:43.085Z,71.90
2019-02-17T20:39:12.196Z,72.70
2019-02-17T20:41:41.299Z,72.20
2019-02-17T20:44:10.182Z,72.40
2019-02-17T20:46:39.461Z,73.20
2019-02-17T20:49:08.266Z,72.80
2019-02-17T20:51:37.074Z,73.50
2019-02-17T20:54:05.971Z,73.80
2019-02-17T20:56:34.823Z,73.80
2019-02-17T20:59:03.712Z,74.40
2019-02-17T21:01:32.498Z,75.20
2019-02-17T21:04:01.366Z,75.00
2019-02-17T21:06:30.354Z,74.50
2019-02-17T21:08:59.480Z,75.40
2019-02-17T21:11:28.555Z,75.90
2019-02-17T21:13:57.502Z,76.30
2019-02-17T21:16:26.357Z,76.30
2019-02-17T21:18:55.249Z,76.40
2019-02-17T21:21:24.323Z,75.20
2019-02-17T21:23:53.190Z,75.50
2019-02-17T21:26:26.307Z,75.90
2019-02-17T21:28:52.802Z,75.20
2019-02-17T21:31:21.824Z,75.00
2019-02-17T21:33:50.826Z,75.50
2019-02-17T21:36:23.129Z,75.50
2019-02-17T21:38:50.739Z,75.00
2019-02-17T21:41:19.619Z,75.50
2019-02-17T21:43:48.441Z,77.00
2019-02-17T21:46:17.612Z,77.00
2019-02-17T21:48:46.964Z,77.20
2019-02-17T21:51:15.798Z,77.70
2019-02-17T21:53:44.571Z,77.00
2019-02-17T21:56:13.508Z,77.60
2019-02-17T21:58:42.383Z,78.00
2019-02-17T22:01:11.215Z,76.90
2019-02-17T22:03:40.009Z,77.50
2019-02-17T22:06:09.022Z,77.40
2019-02-17T22:08:37.996Z,77.80
2019-02-17T22:11:06.836Z,78.20
2019-02-17T22:13:35.796Z,79.20
2019-02-17T22:16:04.895Z,79.70
2019-02-17T22:18:35.568Z,80.30
2019-02-17T22:21:04.547Z,81.40
2019-02-17T22:23:33.391Z,80.90
2019-02-17T22:26:02.296Z,80.60
2019-02-17T22:28:31.088Z,79.90
2019-02-17T22:31:00.337Z,82.20
2019-02-17T22:33:29.207Z,80.80
2019-02-17T22:35:57.996Z,79.40
2019-02-17T22:38:26.764Z,79.30
2019-02-17T22:40:55.755Z,80.90
2019-02-17T22:43:24.572Z,81.60
2019-02-17T22:45:53.326Z,81.70
2019-02-17T22:48:22.086Z,81.80
2019-02-17T22:50:50.855Z,82.10
2019-02-17T22:53:19.640Z,82.10
2019-02-17T22:55:48.659Z,82.20
2019-02-17T22:58:17.453Z,82.30
2019-02-17T23:00:59.358Z,83.80
2019-02-17T23:03:28.698Z,85.00
2019-02-17T23:05:58.061Z,84.70
2019-02-17T23:08:26.995Z,83.70
2019-02-17T23:10:55.912Z,83.80
2019-02-17T23:13:24.940Z,84.20
2019-02-17T23:15:53.696Z,84.60
2019-02-17T23:18:22.592Z,86.00
2019-02-17T23:20:51.444Z,88.40
2019-02-17T23:23:20.212Z,85.20
2019-02-17T23:25:49.072Z,88.00
2019-02-17T23:28:17.842Z,87.40
2019-02-17T23:30:46.594Z,87.70
2019-02-17T23:33:15.337Z,86.90
2019-02-17T23:35:44.153Z,86.30
2019-02-17T23:38:12.923Z,85.50
2019-02-17T23:40:41.747Z,84.70
2019-02-17T23:43:10.499Z,84.60
2019-02-17T23:45:39.561Z,84.60
2019-02-17T23:48:08.564Z,84.10
2019-02-17T23:50:37.307Z,83.50
2019-02-17T23:53:06.071Z,83.80
2019-02-17T23:55:34.910Z,84.00
2019-02-17T23:58:03.905Z,84.00
